sensor_id;sensor_type;location;lat;lon;timestamp;P1;durP1;ratioP1;P2;durP2;ratioP2
44248;SDS011;29923;48.718;9.272;2024-02-14T00:02:07;14.57;;;6.65;;
44248;SDS011;29923;48.718;9.272;2024-02-14T00:04:32;13.15;;;6.28;;
44248;SDS011;29923;48.718;9.272;2024-02-14T00:06:58;17.75;;;6.45;;
44248;SDS011;29923;48.718;9.272;2024-02-14T00:09:23;13.77;;;6.95;;
44248;SDS011;29923;48.718;9.272;2024-02-14T00:11:48;15.35;;;6.43;;
44248;SDS011;29923;48.718;9.272;2024-02-14T00:14:14;14.80;;;6.50;;
44248;SDS011;29923;48.718;9.272;2024-02-14T00:16:39;12.60;;;6.30;;
44248;SDS011;29923;48.718;9.272;2024-02-14T00:19:04;12.18;;;6.85;;
44248;SDS011;29923;48.718;9.272;2024-02-14T00:21:30;12.30;;;5.93;;
44248;SDS011;29923;48.718;9.272;2024-02-14T00:23:56;14.15;;;6.75;;
44248;SDS011;29923;48.718;9.272;2024-02-14T00:26:23;15.73;;;6.85;;
44248;SDS011;29923;48.718;9.272;2024-02-14T00:28:49;16.35;;;6.75;;
44248;SDS011;29923;48.718;9.272;2024-02-14T00:31:14;16.33;;;6.25;;
44248;SDS011;29923;48.718;9.272;2024-02-14T00:33:40;13.27;;;6.00;;
44248;SDS011;29923;48.718;9.272;2024-02-14T00:36:06;15.40;;;6.85;;
44248;SDS011;29923;48.718;9.272;2024-02-14T00:38:31;13.07;;;6.78;;
44248;SDS011;29923;48.718;9.272;2024-02-14T00:40:57;11.95;;;5.93;;
44248;SDS011;29923;48.718;9.272;2024-02-14T00:43:22;16.33;;;6.85;;
44248;SDS011;29923;48.718;9.272;2024-02-14T00:45:47;14.45;;;6.07;;
44248;SDS011;29923;48.718;9.272;2024-02-14T00:48:13;21.58;;;5.93;;
44248;SDS011;29923;48.718;9.272;2024-02-14T00:50:38;15.77;;;6.47;;
44248;SDS011;29923;48.718;9.272;2024-02-14T00:53:03;21.10;;;6.78;;
44248;SDS011;29923;48.718;9.272;2024-02-14T00:55:29;17.15;;;6.55;;
44248;SDS011;29923;48.718;9.272;2024-02-14T00:57:54;22.17;;;7.82;;
44248;SDS011;29923;48.718;9.272;2024-02-14T01:00:19;14.27;;;6.22;;
44248;SDS011;29923;48.718;9.272;2024-02-14T01:02:45;13.50;;;6.53;;
44248;SDS011;29923;48.718;9.272;2024-02-14T01:05:10;12.27;;;5.68;;
44248;SDS011;29923;48.718;9.272;2024-02-14T01:07:36;14.35;;;6.10;;
44248;SDS011;29923;48.718;9.272;2024-02-14T01:10:01;16.77;;;6.35;;
44248;SDS011;29923;48.718;9.272;2024-02-14T01:12:27;11.02;;;5.80;;
44248;SDS011;29923;48.718;9.272;2024-02-14T01:14:54;14.93;;;5.25;;
44248;SDS011;29923;48.718;9.272;2024-02-14T01:17:20;10.85;;;5.53;;
44248;SDS011;29923;48.718;9.272;2024-02-14T01:19:45;11.85;;;5.50;;
44248;SDS011;29923;48.718;9.272;2024-02-14T01:22:10;13.30;;;5.22;;
44248;SDS011;29923;48.718;9.272;2024-02-14T01:24:36;12.23;;;5.00;;
44248;SDS011;29923;48.718;9.272;2024-02-14T01:27:01;11.48;;;5.75;;
44248;SDS011;29923;48.718;9.272;2024-02-14T01:29:28;8.93;;;5.00;;
44248;SDS011;29923;48.718;9.272;2024-02-14T01:31:53;14.93;;;5.93;;
44248;SDS011;29923;48.718;9.272;2024-02-14T01:34:19;12.05;;;5.93;;
44248;SDS011;29923;48.718;9.272;2024-02-14T01:36:45;13.32;;;5.95;;
44248;SDS011;29923;48.718;9.272;2024-02-14T01:39:11;14.88;;;6.38;;
44248;SDS011;29923;48.718;9.272;2024-02-14T01:41:37;16.35;;;7.13;;
44248;SDS011;29923;48.718;9.272;2024-02-14T01:44:03;15.55;;;6.50;;
44248;SDS011;29923;48.718;9.272;2024-02-14T01:46:29;16.90;;;7.38;;
44248;SDS011;29923;48.718;9.272;2024-02-14T01:48:54;12.60;;;6.55;;
44248;SDS011;29923;48.718;9.272;2024-02-14T01:51:20;10.98;;;5.68;;
44248;SDS011;29923;48.718;9.272;2024-02-14T01:53:49;10.25;;;6.35;;
44248;SDS011;29923;48.718;9.272;2024-02-14T01:56:14;17.17;;;7.25;;
44248;SDS011;29923;48.718;9.272;2024-02-14T01:58:41;15.02;;;7.25;;
44248;SDS011;29923;48.718;9.272;2024-02-14T02:01:08;10.45;;;5.88;;
44248;SDS011;29923;48.718;9.272;2024-02-14T02:03:38;16.80;;;6.47;;
44248;SDS011;29923;48.718;9.272;2024-02-14T02:06:05;14.75;;;6.15;;
44248;SDS011;29923;48.718;9.272;2024-02-14T02:08:31;20.33;;;6.93;;
44248;SDS011;29923;48.718;9.272;2024-02-14T02:10:57;13.38;;;6.45;;
44248;SDS011;29923;48.718;9.272;2024-02-14T02:13:25;10.00;;;5.68;;
44248;SDS011;29923;48.718;9.272;2024-02-14T02:15:52;13.52;;;6.07;;
44248;SDS011;29923;48.718;9.272;2024-02-14T02:18:18;14.73;;;6.28;;
44248;SDS011;29923;48.718;9.272;2024-02-14T02:20:44;13.52;;;6.10;;
44248;SDS011;29923;48.718;9.272;2024-02-14T02:23:10;13.75;;;6.00;;
44248;SDS011;29923;48.718;9.272;2024-02-14T02:25:39;12.27;;;6.43;;
44248;SDS011;29923;48.718;9.272;2024-02-14T02:28:05;9.55;;;5.35;;
44248;SDS011;29923;48.718;9.272;2024-02-14T02:30:31;16.73;;;5.65;;
44248;SDS011;29923;48.718;9.272;2024-02-14T02:32:56;10.07;;;5.45;;
44248;SDS011;29923;48.718;9.272;2024-02-14T02:35:22;16.85;;;5.70;;
44248;SDS011;29923;48.718;9.272;2024-02-14T02:37:49;10.95;;;5.82;;
44248;SDS011;29923;48.718;9.272;2024-02-14T02:40:15;12.95;;;5.72;;
44248;SDS011;29923;48.718;9.272;2024-02-14T02:42:41;14.35;;;6.13;;
44248;SDS011;29923;48.718;9.272;2024-02-14T02:45:07;12.00;;;5.57;;
44248;SDS011;29923;48.718;9.272;2024-02-14T02:47:33;13.80;;;5.43;;
44248;SDS011;29923;48.718;9.272;2024-02-14T02:49:59;13.00;;;5.10;;
44248;SDS011;29923;48.718;9.272;2024-02-14T02:52:28;10.57;;;5.38;;
44248;SDS011;29923;48.718;9.272;2024-02-14T02:54:54;13.35;;;5.78;;
44248;SDS011;29923;48.718;9.272;2024-02-14T02:57:19;8.75;;;5.82;;
44248;SDS011;29923;48.718;9.272;2024-02-14T02:59:45;14.70;;;6.53;;
44248;SDS011;29923;48.718;9.272;2024-02-14T03:02:12;10.48;;;6.72;;
44248;SDS011;29923;48.718;9.272;2024-02-14T03:04:38;12.95;;;6.43;;
44248;SDS011;29923;48.718;9.272;2024-02-14T03:07:04;11.88;;;6.30;;
44248;SDS011;29923;48.718;9.272;2024-02-14T03:09:33;11.63;;;5.88;;
44248;SDS011;29923;48.718;9.272;2024-02-14T03:12:02;13.38;;;6.85;;
44248;SDS011;29923;48.718;9.272;2024-02-14T03:14:31;19.88;;;6.72;;
44248;SDS011;29923;48.718;9.272;2024-02-14T03:16:59;14.63;;;8.00;;
44248;SDS011;29923;48.718;9.272;2024-02-14T03:19:25;13.10;;;6.88;;
44248;SDS011;29923;48.718;9.272;2024-02-14T03:21:52;14.00;;;6.75;;
44248;SDS011;29923;48.718;9.272;2024-02-14T03:24:18;12.73;;;6.50;;
44248;SDS011;29923;48.718;9.272;2024-02-14T03:26:43;12.63;;;5.60;;
44248;SDS011;29923;48.718;9.272;2024-02-14T03:29:08;16.23;;;7.00;;
44248;SDS011;29923;48.718;9.272;2024-02-14T03:31:34;14.40;;;6.13;;
44248;SDS011;29923;48.718;9.272;2024-02-14T03:33:59;13.68;;;6.50;;
44248;SDS011;29923;48.718;9.272;2024-02-14T03:36:24;11.48;;;5.53;;
44248;SDS011;29923;48.718;9.272;2024-02-14T03:38:53;14.88;;;7.05;;
44248;SDS011;29923;48.718;9.272;2024-02-14T03:41:18;13.75;;;5.97;;
44248;SDS011;29923;48.718;9.272;2024-02-14T03:43:44;11.65;;;6.25;;
44248;SDS011;29923;48.718;9.272;2024-02-14T03:46:09;18.67;;;6.97;;
44248;SDS011;29923;48.718;9.272;2024-02-14T03:48:34;10.88;;;5.47;;
44248;SDS011;29923;48.718;9.272;2024-02-14T03:51:00;11.98;;;6.32;;
44248;SDS011;29923;48.718;9.272;2024-02-14T03:53:28;23.02;;;7.30;;
44248;SDS011;29923;48.718;9.272;2024-02-14T03:55:53;12.85;;;6.05;;
44248;SDS011;29923;48.718;9.272;2024-02-14T03:58:19;15.15;;;6.80;;
44248;SDS011;29923;48.718;9.272;2024-02-14T04:00:47;14.20;;;6.45;;
44248;SDS011;29923;48.718;9.272;2024-02-14T04:03:16;16.13;;;7.15;;
44248;SDS011;29923;48.718;9.272;2024-02-14T04:05:42;13.10;;;6.50;;
44248;SDS011;29923;48.718;9.272;2024-02-14T04:08:08;11.80;;;6.47;;
44248;SDS011;29923;48.718;9.272;2024-02-14T04:10:38;15.02;;;7.35;;
44248;SDS011;29923;48.718;9.272;2024-02-14T04:13:04;13.63;;;6.40;;
44248;SDS011;29923;48.718;9.272;2024-02-14T04:15:30;12.95;;;5.95;;
44248;SDS011;29923;48.718;9.272;2024-02-14T04:17:56;12.82;;;6.70;;
44248;SDS011;29923;48.718;9.272;2024-02-14T04:20:21;19.40;;;7.13;;
44248;SDS011;29923;48.718;9.272;2024-02-14T04:22:46;13.65;;;6.07;;
44248;SDS011;29923;48.718;9.272;2024-02-14T04:25:12;15.35;;;6.53;;
44248;SDS011;29923;48.718;9.272;2024-02-14T04:27:37;13.05;;;6.70;;
44248;SDS011;29923;48.718;9.272;2024-02-14T04:30:04;14.40;;;8.23;;
44248;SDS011;29923;48.718;9.272;2024-02-14T04:32:30;11.57;;;6.32;;
44248;SDS011;29923;48.718;9.272;2024-02-14T04:34:55;12.55;;;6.25;;
44248;SDS011;29923;48.718;9.272;2024-02-14T04:37:21;13.65;;;7.43;;
44248;SDS011;29923;48.718;9.272;2024-02-14T04:39:46;12.93;;;6.70;;
44248;SDS011;29923;48.718;9.272;2024-02-14T04:42:12;11.88;;;6.70;;
44248;SDS011;29923;48.718;9.272;2024-02-14T04:44:37;14.57;;;7.65;;
44248;SDS011;29923;48.718;9.272;2024-02-14T04:47:02;19.67;;;7.30;;
44248;SDS011;29923;48.718;9.272;2024-02-14T04:49:28;14.70;;;6.40;;
44248;SDS011;29923;48.718;9.272;2024-02-14T04:51:56;16.00;;;7.20;;
44248;SDS011;29923;48.718;9.272;2024-02-14T04:54:22;15.48;;;6.90;;
44248;SDS011;29923;48.718;9.272;2024-02-14T04:56:47;12.00;;;7.00;;
44248;SDS011;29923;48.718;9.272;2024-02-14T04:59:12;11.23;;;6.82;;
44248;SDS011;29923;48.718;9.272;2024-02-14T05:01:38;16.70;;;7.53;;
44248;SDS011;29923;48.718;9.272;2024-02-14T05:04:05;10.35;;;6.20;;
44248;SDS011;29923;48.718;9.272;2024-02-14T05:06:31;11.57;;;7.00;;
44248;SDS011;29923;48.718;9.272;2024-02-14T05:08:57;15.38;;;7.50;;
44248;SDS011;29923;48.718;9.272;2024-02-14T05:11:22;20.67;;;7.95;;
44248;SDS011;29923;48.718;9.272;2024-02-14T05:13:47;14.43;;;7.93;;
44248;SDS011;29923;48.718;9.272;2024-02-14T05:16:13;12.15;;;7.60;;
44248;SDS011;29923;48.718;9.272;2024-02-14T05:18:43;14.77;;;7.30;;
44248;SDS011;29923;48.718;9.272;2024-02-14T05:21:08;12.45;;;6.50;;
44248;SDS011;29923;48.718;9.272;2024-02-14T05:23:34;16.90;;;7.07;;
44248;SDS011;29923;48.718;9.272;2024-02-14T05:26:00;13.57;;;7.60;;
44248;SDS011;29923;48.718;9.272;2024-02-14T05:28:27;15.40;;;7.18;;
44248;SDS011;29923;48.718;9.272;2024-02-14T05:30:53;11.40;;;6.78;;
44248;SDS011;29923;48.718;9.272;2024-02-14T05:33:18;15.45;;;7.85;;
44248;SDS011;29923;48.718;9.272;2024-02-14T05:35:47;11.50;;;7.28;;
44248;SDS011;29923;48.718;9.272;2024-02-14T05:38:15;12.98;;;6.75;;
44248;SDS011;29923;48.718;9.272;2024-02-14T05:40:41;23.75;;;17.33;;
44248;SDS011;29923;48.718;9.272;2024-02-14T05:43:08;12.88;;;7.97;;
44248;SDS011;29923;48.718;9.272;2024-02-14T05:45:36;12.60;;;7.72;;
44248;SDS011;29923;48.718;9.272;2024-02-14T05:48:02;15.15;;;7.45;;
44248;SDS011;29923;48.718;9.272;2024-02-14T05:50:28;11.88;;;7.25;;
44248;SDS011;29923;48.718;9.272;2024-02-14T05:52:53;15.27;;;7.28;;
44248;SDS011;29923;48.718;9.272;2024-02-14T05:55:19;12.35;;;6.15;;
44248;SDS011;29923;48.718;9.272;2024-02-14T05:57:44;13.05;;;7.07;;
44248;SDS011;29923;48.718;9.272;2024-02-14T06:00:10;12.90;;;7.03;;
44248;SDS011;29923;48.718;9.272;2024-02-14T06:02:37;15.32;;;7.20;;
44248;SDS011;29923;48.718;9.272;2024-02-14T06:05:04;12.23;;;7.53;;
44248;SDS011;29923;48.718;9.272;2024-02-14T06:07:31;12.98;;;6.93;;
44248;SDS011;29923;48.718;9.272;2024-02-14T06:09:56;10.38;;;6.32;;
44248;SDS011;29923;48.718;9.272;2024-02-14T06:12:22;10.77;;;6.70;;
44248;SDS011;29923;48.718;9.272;2024-02-14T06:14:50;14.25;;;6.05;;
44248;SDS011;29923;48.718;9.272;2024-02-14T06:17:15;24.35;;;14.15;;
44248;SDS011;29923;48.718;9.272;2024-02-14T06:19:41;10.95;;;6.80;;
44248;SDS011;29923;48.718;9.272;2024-02-14T06:22:06;13.75;;;6.78;;
44248;SDS011;29923;48.718;9.272;2024-02-14T06:24:32;14.10;;;6.07;;
44248;SDS011;29923;48.718;9.272;2024-02-14T06:26:57;12.07;;;5.95;;
44248;SDS011;29923;48.718;9.272;2024-02-14T06:29:23;9.93;;;5.72;;
44248;SDS011;29923;48.718;9.272;2024-02-14T06:31:48;12.07;;;6.25;;
44248;SDS011;29923;48.718;9.272;2024-02-14T06:34:14;9.40;;;6.13;;
44248;SDS011;29923;48.718;9.272;2024-02-14T06:36:39;12.60;;;6.20;;
44248;SDS011;29923;48.718;9.272;2024-02-14T06:39:06;14.73;;;5.68;;
44248;SDS011;29923;48.718;9.272;2024-02-14T06:41:31;13.27;;;6.60;;
44248;SDS011;29923;48.718;9.272;2024-02-14T06:43:57;9.18;;;5.70;;
44248;SDS011;29923;48.718;9.272;2024-02-14T06:46:22;13.80;;;6.10;;
44248;SDS011;29923;48.718;9.272;2024-02-14T06:48:48;8.40;;;5.22;;
44248;SDS011;29923;48.718;9.272;2024-02-14T06:51:13;11.85;;;5.90;;
44248;SDS011;29923;48.718;9.272;2024-02-14T06:53:38;10.43;;;6.18;;
44248;SDS011;29923;48.718;9.272;2024-02-14T06:56:04;12.63;;;5.63;;
44248;SDS011;29923;48.718;9.272;2024-02-14T06:58:29;11.30;;;5.85;;
44248;SDS011;29923;48.718;9.272;2024-02-14T07:00:55;8.75;;;4.72;;
44248;SDS011;29923;48.718;9.272;2024-02-14T07:03:20;12.35;;;5.22;;
44248;SDS011;29923;48.718;9.272;2024-02-14T07:05:45;11.05;;;5.43;;
44248;SDS011;29923;48.718;9.272;2024-02-14T07:08:11;11.52;;;5.55;;
44248;SDS011;29923;48.718;9.272;2024-02-14T07:10:36;12.73;;;5.47;;
44248;SDS011;29923;48.718;9.272;2024-02-14T07:13:01;13.65;;;5.90;;
44248;SDS011;29923;48.718;9.272;2024-02-14T07:15:28;21.48;;;5.90;;
44248;SDS011;29923;48.718;9.272;2024-02-14T07:17:54;12.57;;;5.78;;
44248;SDS011;29923;48.718;9.272;2024-02-14T07:20:20;10.93;;;5.78;;
44248;SDS011;29923;48.718;9.272;2024-02-14T07:22:46;7.70;;;4.85;;
44248;SDS011;29923;48.718;9.272;2024-02-14T07:25:12;55.97;;;32.45;;
44248;SDS011;29923;48.718;9.272;2024-02-14T07:27:38;9.25;;;5.85;;
44248;SDS011;29923;48.718;9.272;2024-02-14T07:30:04;8.73;;;4.68;;
44248;SDS011;29923;48.718;9.272;2024-02-14T07:32:30;13.25;;;5.47;;
44248;SDS011;29923;48.718;9.272;2024-02-14T07:34:56;8.85;;;4.22;;
44248;SDS011;29923;48.718;9.272;2024-02-14T07:37:21;8.27;;;4.82;;
44248;SDS011;29923;48.718;9.272;2024-02-14T07:39:46;9.02;;;4.88;;
44248;SDS011;29923;48.718;9.272;2024-02-14T07:42:12;9.15;;;4.50;;
44248;SDS011;29923;48.718;9.272;2024-02-14T07:44:38;13.38;;;5.57;;
44248;SDS011;29923;48.718;9.272;2024-02-14T07:47:03;11.43;;;5.43;;
44248;SDS011;29923;48.718;9.272;2024-02-14T07:49:29;9.77;;;5.05;;
44248;SDS011;29923;48.718;9.272;2024-02-14T07:51:55;8.40;;;5.18;;
44248;SDS011;29923;48.718;9.272;2024-02-14T07:54:20;11.32;;;4.95;;
44248;SDS011;29923;48.718;9.272;2024-02-14T07:56:49;13.05;;;5.45;;
44248;SDS011;29923;48.718;9.272;2024-02-14T07:59:15;11.05;;;5.20;;
44248;SDS011;29923;48.718;9.272;2024-02-14T08:01:41;11.43;;;5.43;;
44248;SDS011;29923;48.718;9.272;2024-02-14T08:04:08;13.07;;;6.35;;
44248;SDS011;29923;48.718;9.272;2024-02-14T08:06:33;38.60;;;26.70;;
44248;SDS011;29923;48.718;9.272;2024-02-14T08:08:59;12.18;;;6.00;;
44248;SDS011;29923;48.718;9.272;2024-02-14T08:11:27;8.40;;;4.80;;
44248;SDS011;29923;48.718;9.272;2024-02-14T08:13:52;13.30;;;5.47;;
44248;SDS011;29923;48.718;9.272;2024-02-14T08:16:18;11.35;;;5.60;;
44248;SDS011;29923;48.718;9.272;2024-02-14T08:18:43;19.23;;;6.38;;
44248;SDS011;29923;48.718;9.272;2024-02-14T08:21:14;15.95;;;6.00;;
44248;SDS011;29923;48.718;9.272;2024-02-14T08:23:39;11.02;;;5.78;;
44248;SDS011;29923;48.718;9.272;2024-02-14T08:26:06;13.73;;;5.90;;
44248;SDS011;29923;48.718;9.272;2024-02-14T08:28:35;10.15;;;5.05;;
44248;SDS011;29923;48.718;9.272;2024-02-14T08:31:10;14.82;;;5.70;;
44248;SDS011;29923;48.718;9.272;2024-02-14T08:33:36;11.05;;;5.80;;
44248;SDS011;29923;48.718;9.272;2024-02-14T08:36:03;15.18;;;5.57;;
44248;SDS011;29923;48.718;9.272;2024-02-14T08:38:28;14.23;;;6.53;;
44248;SDS011;29923;48.718;9.272;2024-02-14T08:40:54;14.25;;;6.05;;
44248;SDS011;29923;48.718;9.272;2024-02-14T08:43:19;8.93;;;5.60;;
44248;SDS011;29923;48.718;9.272;2024-02-14T08:45:45;14.68;;;5.70;;
44248;SDS011;29923;48.718;9.272;2024-02-14T08:48:10;12.18;;;5.95;;
44248;SDS011;29923;48.718;9.272;2024-02-14T08:50:35;11.25;;;5.75;;
44248;SDS011;29923;48.718;9.272;2024-02-14T08:53:01;16.52;;;5.97;;
44248;SDS011;29923;48.718;9.272;2024-02-14T08:55:26;13.13;;;5.63;;
44248;SDS011;29923;48.718;9.272;2024-02-14T08:57:52;8.30;;;5.07;;
44248;SDS011;29923;48.718;9.272;2024-02-14T09:00:17;9.80;;;5.13;;
44248;SDS011;29923;48.718;9.272;2024-02-14T09:02:47;14.00;;;5.45;;
44248;SDS011;29923;48.718;9.272;2024-02-14T09:05:12;10.20;;;4.68;;
44248;SDS011;29923;48.718;9.272;2024-02-14T09:07:38;12.07;;;5.03;;
44248;SDS011;29923;48.718;9.272;2024-02-14T09:10:03;13.18;;;6.30;;
44248;SDS011;29923;48.718;9.272;2024-02-14T09:12:30;12.05;;;5.53;;
44248;SDS011;29923;48.718;9.272;2024-02-14T09:14:56;12.50;;;5.50;;
44248;SDS011;29923;48.718;9.272;2024-02-14T09:17:22;11.10;;;5.15;;
44248;SDS011;29923;48.718;9.272;2024-02-14T09:19:47;11.63;;;5.38;;
44248;SDS011;29923;48.718;9.272;2024-02-14T09:22:13;17.60;;;4.65;;
44248;SDS011;29923;48.718;9.272;2024-02-14T09:24:43;10.82;;;4.03;;
44248;SDS011;29923;48.718;9.272;2024-02-14T09:27:08;7.63;;;3.63;;
44248;SDS011;29923;48.718;9.272;2024-02-14T09:29:34;15.30;;;3.83;;
44248;SDS011;29923;48.718;9.272;2024-02-14T09:32:01;8.18;;;2.92;;
44248;SDS011;29923;48.718;9.272;2024-02-14T09:34:28;8.95;;;3.10;;
44248;SDS011;29923;48.718;9.272;2024-02-14T09:36:54;5.20;;;3.05;;
44248;SDS011;29923;48.718;9.272;2024-02-14T09:39:33;16.05;;;3.10;;
44248;SDS011;29923;48.718;9.272;2024-02-14T09:42:01;4.65;;;2.38;;
44248;SDS011;29923;48.718;9.272;2024-02-14T09:44:36;3.38;;;2.38;;
44248;SDS011;29923;48.718;9.272;2024-02-14T09:47:05;5.32;;;2.30;;
44248;SDS011;29923;48.718;9.272;2024-02-14T09:49:31;4.82;;;1.67;;
44248;SDS011;29923;48.718;9.272;2024-02-14T09:51:56;4.78;;;1.70;;
44248;SDS011;29923;48.718;9.272;2024-02-14T09:54:22;4.88;;;2.20;;
44248;SDS011;29923;48.718;9.272;2024-02-14T09:56:50;4.63;;;1.80;;
44248;SDS011;29923;48.718;9.272;2024-02-14T09:59:18;6.15;;;1.90;;
44248;SDS011;29923;48.718;9.272;2024-02-14T10:01:44;5.30;;;1.20;;
44248;SDS011;29923;48.718;9.272;2024-02-14T10:04:11;3.60;;;1.70;;
44248;SDS011;29923;48.718;9.272;2024-02-14T10:06:36;4.93;;;2.30;;
44248;SDS011;29923;48.718;9.272;2024-02-14T10:09:02;2.97;;;1.20;;
44248;SDS011;29923;48.718;9.272;2024-02-14T10:11:27;3.63;;;1.10;;
44248;SDS011;29923;48.718;9.272;2024-02-14T10:13:53;2.70;;;1.15;;
44248;SDS011;29923;48.718;9.272;2024-02-14T10:16:22;4.07;;;1.30;;
44248;SDS011;29923;48.718;9.272;2024-02-14T10:18:47;3.00;;;1.27;;
44248;SDS011;29923;48.718;9.272;2024-02-14T10:21:14;3.15;;;1.20;;
44248;SDS011;29923;48.718;9.272;2024-02-14T10:23:42;2.75;;;1.17;;
44248;SDS011;29923;48.718;9.272;2024-02-14T10:26:08;4.90;;;1.48;;
44248;SDS011;29923;48.718;9.272;2024-02-14T10:28:34;8.13;;;1.08;;
44248;SDS011;29923;48.718;9.272;2024-02-14T10:31:05;5.38;;;1.00;;
44248;SDS011;29923;48.718;9.272;2024-02-14T10:33:31;4.45;;;1.77;;
44248;SDS011;29923;48.718;9.272;2024-02-14T10:35:57;5.35;;;1.27;;
44248;SDS011;29923;48.718;9.272;2024-02-14T10:38:23;5.63;;;1.27;;
44248;SDS011;29923;48.718;9.272;2024-02-14T10:40:49;2.83;;;1.00;;
44248;SDS011;29923;48.718;9.272;2024-02-14T10:46:37;4.32;;;1.60;;
44248;SDS011;29923;48.718;9.272;2024-02-14T10:49:03;1.75;;;0.95;;
44248;SDS011;29923;48.718;9.272;2024-02-14T10:51:33;2.90;;;1.38;;
44248;SDS011;29923;48.718;9.272;2024-02-14T10:54:12;4.43;;;1.00;;
44248;SDS011;29923;48.718;9.272;2024-02-14T10:56:41;2.63;;;1.23;;
44248;SDS011;29923;48.718;9.272;2024-02-14T10:59:08;3.70;;;1.05;;
44248;SDS011;29923;48.718;9.272;2024-02-14T11:01:35;4.10;;;1.40;;
44248;SDS011;29923;48.718;9.272;2024-02-14T11:04:03;2.15;;;0.93;;
44248;SDS011;29923;48.718;9.272;2024-02-14T11:06:29;3.70;;;1.10;;
44248;SDS011;29923;48.718;9.272;2024-02-14T11:09:01;3.00;;;1.08;;
44248;SDS011;29923;48.718;9.272;2024-02-14T11:11:32;3.42;;;1.35;;
44248;SDS011;29923;48.718;9.272;2024-02-14T11:13:58;2.47;;;1.02;;
44248;SDS011;29923;48.718;9.272;2024-02-14T11:16:27;2.92;;;1.23;;
44248;SDS011;29923;48.718;9.272;2024-02-14T11:19:14;1.45;;;0.70;;
44248;SDS011;29923;48.718;9.272;2024-02-14T11:21:42;4.85;;;1.13;;
44248;SDS011;29923;48.718;9.272;2024-02-14T11:24:11;2.33;;;0.95;;
44248;SDS011;29923;48.718;9.272;2024-02-14T11:26:45;2.28;;;0.90;;
44248;SDS011;29923;48.718;9.272;2024-02-14T11:29:15;2.03;;;1.10;;
44248;SDS011;29923;48.718;9.272;2024-02-14T11:31:46;3.50;;;1.00;;
44248;SDS011;29923;48.718;9.272;2024-02-14T11:34:15;2.67;;;0.90;;
44248;SDS011;29923;48.718;9.272;2024-02-14T11:36:44;2.22;;;0.98;;
44248;SDS011;29923;48.718;9.272;2024-02-14T11:39:10;4.78;;;1.17;;
44248;SDS011;29923;48.718;9.272;2024-02-14T11:41:39;5.07;;;1.23;;
44248;SDS011;29923;48.718;9.272;2024-02-14T11:44:07;4.28;;;1.00;;
44248;SDS011;29923;48.718;9.272;2024-02-14T11:46:33;3.25;;;1.05;;
44248;SDS011;29923;48.718;9.272;2024-02-14T11:48:59;1.25;;;0.88;;
44248;SDS011;29923;48.718;9.272;2024-02-14T11:51:27;2.75;;;0.85;;
44248;SDS011;29923;48.718;9.272;2024-02-14T11:53:53;1.88;;;0.85;;
44248;SDS011;29923;48.718;9.272;2024-02-14T11:56:20;2.15;;;1.13;;
44248;SDS011;29923;48.718;9.272;2024-02-14T11:58:47;3.70;;;0.90;;
44248;SDS011;29923;48.718;9.272;2024-02-14T12:01:15;1.38;;;0.82;;
44248;SDS011;29923;48.718;9.272;2024-02-14T12:03:42;2.47;;;0.77;;
44248;SDS011;29923;48.718;9.272;2024-02-14T12:06:07;2.28;;;0.93;;
44248;SDS011;29923;48.718;9.272;2024-02-14T12:08:33;4.15;;;1.23;;
44248;SDS011;29923;48.718;9.272;2024-02-14T12:10:59;7.18;;;3.80;;
44248;SDS011;29923;48.718;9.272;2024-02-14T12:13:24;1.42;;;0.70;;
44248;SDS011;29923;48.718;9.272;2024-02-14T12:15:50;2.33;;;0.80;;
44248;SDS011;29923;48.718;9.272;2024-02-14T12:18:16;0.70;;;0.50;;
44248;SDS011;29923;48.718;9.272;2024-02-14T12:20:43;2.63;;;0.60;;
44248;SDS011;29923;48.718;9.272;2024-02-14T12:23:13;0.45;;;0.40;;
44248;SDS011;29923;48.718;9.272;2024-02-14T12:25:42;2.25;;;0.80;;
44248;SDS011;29923;48.718;9.272;2024-02-14T12:28:07;0.68;;;0.65;;
44248;SDS011;29923;48.718;9.272;2024-02-14T12:30:43;1.15;;;0.68;;
44248;SDS011;29923;48.718;9.272;2024-02-14T12:33:13;2.05;;;1.40;;
44248;SDS011;29923;48.718;9.272;2024-02-14T12:35:46;1.83;;;0.60;;
44248;SDS011;29923;48.718;9.272;2024-02-14T12:40:38;5.53;;;0.60;;
44248;SDS011;29923;48.718;9.272;2024-02-14T12:43:07;0.60;;;0.40;;
44248;SDS011;29923;48.718;9.272;2024-02-14T12:45:33;1.17;;;0.50;;
44248;SDS011;29923;48.718;9.272;2024-02-14T12:47:58;0.80;;;0.40;;
44248;SDS011;29923;48.718;9.272;2024-02-14T12:50:24;3.50;;;0.55;;
44248;SDS011;29923;48.718;9.272;2024-02-14T12:52:50;1.00;;;0.45;;
44248;SDS011;29923;48.718;9.272;2024-02-14T12:55:15;1.02;;;0.55;;
44248;SDS011;29923;48.718;9.272;2024-02-14T12:57:40;1.63;;;0.50;;
44248;SDS011;29923;48.718;9.272;2024-02-14T13:00:06;1.55;;;0.40;;
44248;SDS011;29923;48.718;9.272;2024-02-14T13:02:34;1.63;;;0.35;;
44248;SDS011;29923;48.718;9.272;2024-02-14T13:05:00;1.85;;;0.52;;
44248;SDS011;29923;48.718;9.272;2024-02-14T13:07:26;1.77;;;0.70;;
44248;SDS011;29923;48.718;9.272;2024-02-14T13:09:52;2.45;;;0.60;;
44248;SDS011;29923;48.718;9.272;2024-02-14T13:12:17;1.67;;;1.48;;
44248;SDS011;29923;48.718;9.272;2024-02-14T13:14:43;1.95;;;0.60;;
44248;SDS011;29923;48.718;9.272;2024-02-14T13:17:09;1.05;;;0.40;;
44248;SDS011;29923;48.718;9.272;2024-02-14T13:19:36;1.98;;;0.43;;
44248;SDS011;29923;48.718;9.272;2024-02-14T13:22:01;1.48;;;0.47;;
44248;SDS011;29923;48.718;9.272;2024-02-14T13:24:27;0.90;;;0.43;;
44248;SDS011;29923;48.718;9.272;2024-02-14T13:26:53;4.18;;;0.60;;
44248;SDS011;29923;48.718;9.272;2024-02-14T13:29:19;1.20;;;0.50;;
44248;SDS011;29923;48.718;9.272;2024-02-14T13:31:44;0.50;;;0.30;;
44248;SDS011;29923;48.718;9.272;2024-02-14T13:34:10;8.82;;;0.60;;
44248;SDS011;29923;48.718;9.272;2024-02-14T13:36:36;0.40;;;0.30;;
44248;SDS011;29923;48.718;9.272;2024-02-14T13:39:02;0.40;;;0.32;;
44248;SDS011;29923;48.718;9.272;2024-02-14T13:41:27;2.97;;;0.40;;
44248;SDS011;29923;48.718;9.272;2024-02-14T13:43:53;0.30;;;0.30;;
44248;SDS011;29923;48.718;9.272;2024-02-14T13:46:18;0.82;;;0.30;;
44248;SDS011;29923;48.718;9.272;2024-02-14T13:48:44;1.65;;;0.50;;
44248;SDS011;29923;48.718;9.272;2024-02-14T13:51:09;0.75;;;0.38;;
44248;SDS011;29923;48.718;9.272;2024-02-14T13:53:35;1.08;;;0.70;;
44248;SDS011;29923;48.718;9.272;2024-02-14T13:56:00;3.08;;;0.40;;
44248;SDS011;29923;48.718;9.272;2024-02-14T13:58:26;0.85;;;0.35;;
44248;SDS011;29923;48.718;9.272;2024-02-14T14:00:51;0.40;;;0.40;;
44248;SDS011;29923;48.718;9.272;2024-02-14T14:03:17;0.98;;;0.40;;
44248;SDS011;29923;48.718;9.272;2024-02-14T14:05:43;1.77;;;0.20;;
44248;SDS011;29923;48.718;9.272;2024-02-14T14:08:08;0.30;;;0.30;;
44248;SDS011;29923;48.718;9.272;2024-02-14T14:10:34;0.45;;;0.43;;
44248;SDS011;29923;48.718;9.272;2024-02-14T14:12:59;0.40;;;0.40;;
44248;SDS011;29923;48.718;9.272;2024-02-14T14:15:25;0.75;;;0.40;;
44248;SDS011;29923;48.718;9.272;2024-02-14T14:17:51;1.80;;;1.45;;
44248;SDS011;29923;48.718;9.272;2024-02-14T14:20:17;1.75;;;0.55;;
44248;SDS011;29923;48.718;9.272;2024-02-14T14:22:43;0.55;;;0.40;;
44248;SDS011;29923;48.718;9.272;2024-02-14T14:25:08;0.60;;;0.40;;
44248;SDS011;29923;48.718;9.272;2024-02-14T14:27:34;1.48;;;0.40;;
44248;SDS011;29923;48.718;9.272;2024-02-14T14:30:00;0.50;;;0.50;;
44248;SDS011;29923;48.718;9.272;2024-02-14T14:32:25;1.52;;;0.50;;
44248;SDS011;29923;48.718;9.272;2024-02-14T14:34:50;0.40;;;0.40;;
44248;SDS011;29923;48.718;9.272;2024-02-14T14:37:16;1.23;;;0.80;;
44248;SDS011;29923;48.718;9.272;2024-02-14T14:39:41;3.08;;;0.60;;
44248;SDS011;29923;48.718;9.272;2024-02-14T14:42:08;0.70;;;0.50;;